Time;durP1;ratioP1;P1;durP2;ratioP2;P2;SDS_P1;SDS_P2;PMS_P1;PMS_P2;Temp;Humidity;BMP_temperature;BMP_pressure;BME280_temperature;BME280_humidity;BME280_pressure;Samples;Min_cycle;Max_cycle;Signal;HPM_P1;HPM_P2
2023/07/06 00:02:26;;;;;;;6.47;3.40;;;;;;;27.31;53.64;100822.63;5054472;28;20045;-57
2023/07/06 00:04:53;;;;;;;4.40;2.85;;;;;;;27.33;53.67;100822.44;5054438;28;20041;-56
2023/07/06 00:07:22;;;;;;;4.70;3.17;;;;;;;27.33;53.50;100830.59;5054460;28;20059;-58
2023/07/06 00:09:50;;;;;;;5.00;3.05;;;;;;;27.33;53.64;100831.44;5054196;28;20053;-58
2023/07/06 00:12:19;;;;;;;4.32;3.13;;;;;;;27.32;53.87;100831.63;5054204;28;20045;-58
2023/07/06 00:14:46;;;;;;;4.88;3.75;;;;;;;27.32;54.03;100837.91;5054094;28;20053;-58
2023/07/06 00:17:15;;;;;;;5.60;3.67;;;;;;;27.32;53.71;100837.06;5053509;28;20052;-58
2023/07/06 00:19:42;;;;;;;5.50;3.90;;;;;;;27.32;53.89;100832.47;5053911;28;20049;-58
2023/07/06 00:22:11;;;;;;;7.30;3.60;;;;;;;27.32;54.09;100831.63;5053964;28;20040;-58
2023/07/06 00:24:41;;;;;;;5.35;3.17;;;;;;;27.31;54.02;100838.09;5053913;28;20060;-58
2023/07/06 00:27:09;;;;;;;5.00;3.40;;;;;;;27.31;54.02;100840.81;5053966;28;20045;-58
2023/07/06 00:29:46;;;;;;;5.18;3.42;;;;;;;27.32;53.97;100839.78;5054286;28;20372;-58
2023/07/06 00:32:26;;;;;;;4.45;3.17;;;;;;;27.31;53.79;100841.66;5054312;28;20052;-58
2023/07/06 00:34:58;;;;;;;4.70;3.00;;;;;;;27.31;53.60;100832.66;5054102;28;20049;-58
2023/07/06 00:37:26;;;;;;;5.55;3.42;;;;;;;27.30;53.65;100830.94;5054420;28;20049;-58
2023/07/06 00:39:53;;;;;;;3.80;2.97;;;;;;;27.31;53.71;100840.81;5054020;28;20073;-58
2023/07/06 00:42:22;;;;;;;5.72;3.58;;;;;;;27.31;53.56;100841.66;5053951;28;20048;-58
2023/07/06 00:44:59;;;;;;;5.22;3.10;;;;;;;27.30;53.75;100850.81;5052861;28;20057;-58
2023/07/06 00:47:38;;;;;;;7.40;3.55;;;;;;;27.30;53.54;100842.66;5053836;28;20059;-56
2023/07/06 00:50:10;;;;;;;6.20;3.50;;;;;;;27.30;53.91;100845.38;5052513;28;20060;-57
2023/07/06 00:52:44;;;;;;;4.68;3.47;;;;;;;27.30;53.69;100847.25;5053914;28;20051;-56
2023/07/06 00:55:12;;;;;;;4.85;3.20;;;;;;;27.29;53.61;100846.41;5052315;28;20479;-56
2023/07/06 00:57:42;;;;;;;4.78;3.50;;;;;;;27.29;53.32;100853.72;5053849;28;20387;-56
2023/07/06 01:00:13;;;;;;;4.95;3.17;;;;;;;27.30;53.19;100841.81;5052433;28;20056;-57
2023/07/06 01:02:41;;;;;;;4.93;4.05;;;;;;;27.29;53.11;100849.13;5053862;28;20052;-56
2023/07/06 01:05:10;;;;;;;5.10;3.28;;;;;;;27.30;53.36;100855.41;5053837;28;20045;-56
2023/07/06 01:07:44;;;;;;;6.38;3.25;;;;;;;27.29;53.39;100851.84;5052405;28;20053;-58
2023/07/06 01:10:13;;;;;;;5.32;3.17;;;;;;;27.30;53.23;100852.69;5052716;28;20053;-58
2023/07/06 01:12:40;;;;;;;6.10;3.40;;;;;;;27.29;53.34;100851.84;5052383;28;20049;-58
2023/07/06 01:15:08;;;;;;;6.07;3.95;;;;;;;27.29;53.47;100861.88;5053496;28;20053;-58
2023/07/06 01:18:06;;;;;;;6.50;3.80;;;;;;;27.29;53.21;100859.16;5053426;28;20482;-57
2023/07/06 01:20:57;;;;;;;4.95;3.40;;;;;;;27.30;53.00;100858.13;5052398;28;20053;-56
2023/07/06 01:23:35;;;;;;;5.55;3.47;;;;;;;27.29;53.60;100851.00;5052259;28;20375;-56
2023/07/06 01:26:36;;;;;;;4.65;2.97;;;;;;;27.29;53.55;100853.72;5036011;28;20510;-58
2023/07/06 01:29:22;;;;;;;4.38;3.25;;;;;;;27.28;53.74;100852.88;5052105;28;20048;-58
2023/07/06 01:31:55;;;;;;;4.75;3.22;;;;;;;27.29;53.60;100845.56;5057479;28;20471;-58
2023/07/06 01:34:53;;;;;;;5.95;3.30;;;;;;;27.29;53.61;100840.13;5057539;28;20074;-58
2023/07/06 01:37:29;;;;;;;4.53;3.20;;;;;;;27.27;53.81;100853.09;5057503;28;20517;-58
2023/07/06 01:40:00;;;;;;;5.07;3.35;;;;;;;27.27;53.58;100856.66;5057463;28;20370;-58
2023/07/06 01:42:32;;;;;;;4.70;3.43;;;;;;;27.28;53.98;100852.06;5057248;28;20348;-59
2023/07/06 01:45:21;;;;;;;5.10;3.33;;;;;;;27.27;54.17;100842.22;5057195;28;20282;-58
2023/07/06 01:48:03;;;;;;;4.88;3.30;;;;;;;27.28;54.15;100857.47;5057276;28;20048;-58
2023/07/06 01:50:41;;;;;;;4.88;3.22;;;;;;;27.27;54.00;100856.66;5055627;28;20055;-58
2023/07/06 01:53:21;;;;;;;4.20;3.05;;;;;;;27.27;54.12;100851.22;5055196;28;20491;-58
2023/07/06 01:56:01;;;;;;;5.40;3.22;;;;;;;27.27;54.19;100847.66;5055741;28;20053;-57
2023/07/06 01:58:43;;;;;;;4.78;3.65;;;;;;;27.27;54.30;100853.94;5055935;28;20052;-58
2023/07/06 02:01:26;;;;;;;6.20;3.50;;;;;;;27.27;53.95;100861.25;5055878;28;20063;-58
2023/07/06 02:03:55;;;;;;;;;;;;;;;27.24;54.28;100848.84;5039750;28;20053;-58
2023/07/06 02:06:22;;;;;;;6.72;3.58;;;;;;;27.26;54.25;100868.53;5055812;28;19927;-58
2023/07/06 02:08:51;;;;;;;6.40;3.70;;;;;;;27.27;54.16;100877.53;5056610;28;20052;-58
2023/07/06 02:11:21;;;;;;;5.93;4.10;;;;;;;27.26;54.07;100887.56;5056802;28;20395;-58
2023/07/06 02:13:48;;;;;;;5.80;3.25;;;;;;;27.26;54.24;100884.00;5055341;28;20502;-58
2023/07/06 02:16:15;;;;;;;5.00;3.92;;;;;;;27.26;53.98;100894.88;5054871;28;20060;-56
2023/07/06 02:18:44;;;;;;;6.22;3.45;;;;;;;27.27;53.98;100885.69;5054962;28;20056;-56
2023/07/06 02:21:13;;;;;;;5.38;3.88;;;;;;;27.27;54.22;100893.84;5055336;28;20056;-56
2023/07/06 02:23:41;;;;;;;6.15;3.30;;;;;;;27.26;54.20;100886.72;5055451;28;20045;-56
2023/07/06 02:26:09;;;;;;;4.55;3.15;;;;;;;27.26;54.07;100886.72;5056883;28;20380;-57
2023/07/06 02:28:36;;;;;;;4.47;3.67;;;;;;;27.25;54.30;100885.88;5056387;28;20049;-56
2023/07/06 02:31:04;;;;;;;4.90;3.35;;;;;;;27.26;54.11;100886.72;5056473;28;20080;-57
2023/07/06 02:33:34;;;;;;;7.40;3.60;;;;;;;27.25;54.03;100883.16;5056311;28;20479;-57
2023/07/06 02:36:02;;;;;;;5.50;3.92;;;;;;;27.25;54.42;100885.88;5056449;28;20053;-58
2023/07/06 02:38:29;;;;;;;4.93;3.50;;;;;;;27.26;54.30;100889.44;5054987;28;20061;-58
2023/07/06 02:40:57;;;;;;;4.30;3.17;;;;;;;27.25;54.21;100882.31;5055107;28;20053;-58
2023/07/06 02:43:25;;;;;;;4.60;2.97;;;;;;;27.26;54.33;100894.88;5055929;28;20041;-58
2023/07/06 02:45:52;;;;;;;5.22;2.92;;;;;;;27.26;54.48;100895.69;5055924;28;20040;-59
2023/07/06 02:48:20;;;;;;;5.03;3.42;;;;;;;27.26;54.52;100895.69;5054874;28;20053;-58
2023/07/06 02:50:49;;;;;;;4.70;3.47;;;;;;;27.27;54.79;100894.69;5055888;28;20052;-58
2023/07/06 02:53:18;;;;;;;5.18;3.60;;;;;;;27.28;55.02;100890.09;5056312;28;20048;-58
2023/07/06 02:55:46;;;;;;;4.47;3.55;;;;;;;27.28;54.88;100895.53;5055563;28;20045;-58
2023/07/06 02:58:14;;;;;;;5.50;3.30;;;;;;;27.27;54.88;100891.97;5055566;28;20052;-58
2023/07/06 03:00:42;;;;;;;4.85;3.47;;;;;;;27.28;54.82;100887.38;5056134;28;20041;-58
2023/07/06 03:03:09;;;;;;;6.43;3.58;;;;;;;27.26;54.90;100887.56;5055385;28;20048;-58
2023/07/06 03:05:37;;;;;;;6.65;3.80;;;;;;;27.28;55.01;100892.81;5055744;28;20056;-58
2023/07/06 03:08:05;;;;;;;4.70;3.45;;;;;;;27.27;54.77;100893.84;5055318;28;20056;-57
2023/07/06 03:10:33;;;;;;;4.28;3.33;;;;;;;27.26;54.78;100890.28;5055785;28;20052;-57
2023/07/06 03:13:00;;;;;;;6.05;3.55;;;;;;;27.27;54.84;100891.13;5055098;28;20033;-57
2023/07/06 03:15:31;;;;;;;5.68;3.92;;;;;;;27.28;55.18;100903.69;5055669;28;20052;-56
2023/07/06 03:17:59;;;;;;;5.65;3.80;;;;;;;27.27;54.83;100902.00;5054994;28;20056;-62
2023/07/06 03:20:26;;;;;;;6.65;4.03;;;;;;;27.26;54.51;100909.28;5037557;28;20503;-63
2023/07/06 03:22:53;;;;;;;3.97;3.17;;;;;;;27.25;54.71;100898.63;5054609;28;20045;-63
2023/07/06 03:25:25;;;;;;;5.20;3.63;;;;;;;27.24;54.63;100902.38;5055386;28;20052;-63
2023/07/06 03:27:53;;;;;;;4.85;3.55;;;;;;;27.22;54.83;100896.25;5055413;28;20049;-58
2023/07/06 03:30:23;;;;;;;7.45;3.92;;;;;;;27.21;54.78;100889.13;5055326;28;20045;-58
2023/07/06 03:32:54;;;;;;;6.05;3.80;;;;;;;27.21;54.60;100891.84;5055083;28;20056;-58
2023/07/06 03:35:23;;;;;;;5.22;3.40;;;;;;;27.19;54.52;100886.63;5055320;28;20055;-58
2023/07/06 03:37:55;;;;;;;5.90;4.38;;;;;;;27.17;54.37;100891.38;5054474;28;20438;-63
2023/07/06 03:40:22;;;;;;;6.18;3.90;;;;;;;27.18;53.94;100901.22;5053091;28;20060;-62
2023/07/06 03:42:50;;;;;;;5.53;3.58;;;;;;;27.16;54.22;100902.44;5055023;28;20048;-62
2023/07/06 03:45:17;;;;;;;7.13;3.70;;;;;;;27.15;54.12;100906.19;5055371;28;20045;-63
2023/07/06 03:47:45;;;;;;;5.47;4.00;;;;;;;27.14;54.13;100908.03;5054136;28;20048;-63
2023/07/06 03:50:16;;;;;;;6.00;3.40;;;;;;;27.13;53.81;100909.06;5054515;28;20406;-62
2023/07/06 03:52:44;;;;;;;6.65;3.95;;;;;;;27.14;53.85;100920.78;5053497;28;20410;-62
2023/07/06 03:55:17;;;;;;;5.45;3.30;;;;;;;27.12;53.87;100915.53;5054611;28;20384;-62
2023/07/06 03:57:45;;;;;;;5.65;3.83;;;;;;;27.11;53.78;100906.53;5054901;28;20052;-58
2023/07/06 04:00:30;;;;;;;5.95;3.58;;;;;;;27.13;53.88;100914.50;5054558;28;20399;-58
2023/07/06 04:03:03;;;;;;;5.10;3.20;;;;;;;27.13;53.99;100917.22;5054254;28;20068;-57
2023/07/06 04:05:36;;;;;;;5.20;3.30;;;;;;;27.11;53.45;100911.97;5054721;28;20068;-58
2023/07/06 04:08:13;;;;;;;4.90;3.35;;;;;;;27.10;53.28;100907.56;5054445;28;20057;-63
2023/07/06 04:10:41;;;;;;;4.50;3.28;;;;;;;27.08;53.15;100901.44;5054394;28;20380;-62
2023/07/06 04:13:29;;;;;;;4.93;3.42;;;;;;;27.07;53.27;100897.03;5054432;28;20044;-62
2023/07/06 04:15:57;;;;;;;6.10;3.35;;;;;;;27.07;52.86;100888.03;5054099;28;20044;-62
2023/07/06 04:18:25;;;;;;;4.80;3.40;;;;;;;27.07;53.25;100893.47;5053909;28;20057;-63
2023/07/06 04:20:55;;;;;;;4.50;3.35;;;;;;;27.06;53.10;100883.59;5053767;28;20053;-62
2023/07/06 04:23:23;;;;;;;5.95;3.97;;;;;;;27.06;53.13;100889.03;5054689;28;20394;-62
2023/07/06 04:25:52;;;;;;;6.13;3.67;;;;;;;27.05;53.46;100879.22;5054151;28;20048;-62
2023/07/06 04:28:20;;;;;;;5.88;4.03;;;;;;;27.05;53.43;100879.22;5053778;28;20049;-58
2023/07/06 04:30:49;;;;;;;4.38;3.00;;;;;;;27.04;53.16;100869.38;5053919;28;20049;-57
2023/07/06 04:33:19;;;;;;;4.75;3.28;;;;;;;27.02;53.14;100880.44;5054338;28;20053;-57
2023/07/06 04:35:51;;;;;;;5.93;3.08;;;;;;;27.03;53.44;100878.56;5053558;28;20059;-58
2023/07/06 04:38:21;;;;;;;5.45;3.75;;;;;;;27.04;53.67;100888.41;5053928;28;20063;-57
2023/07/06 04:40:51;;;;;;;5.32;3.58;;;;;;;27.04;53.88;100891.09;5053529;28;20513;-57
2023/07/06 04:43:19;;;;;;;5.60;3.75;;;;;;;27.03;53.80;100884.84;5054056;28;20047;-58
2023/07/06 04:45:46;;;;;;;5.88;3.60;;;;;;;27.02;53.64;100880.44;5053822;28;20411;-58
2023/07/06 04:48:16;;;;;;;5.05;3.42;;;;;;;27.02;53.71;100883.16;5054300;28;20052;-62
2023/07/06 04:50:44;;;;;;;6.57;3.95;;;;;;;27.01;53.69;100881.44;5054187;28;20053;-63
2023/07/06 04:53:11;;;;;;;5.97;3.60;;;;;;;27.02;53.62;100888.59;5053623;28;20045;-63
2023/07/06 04:55:38;;;;;;;6.13;3.92;;;;;;;27.02;53.65;100891.31;5053907;28;20049;-62
2023/07/06 04:58:06;;;;;;;6.40;3.47;;;;;;;27.03;53.84;100895.72;5053884;28;20059;-63
2023/07/06 05:00:37;;;;;;;6.82;3.92;;;;;;;27.02;53.78;100888.59;5053339;28;20056;-62
2023/07/06 05:03:06;;;;;;;5.32;3.40;;;;;;;27.03;53.63;100897.59;5053798;28;20049;-63
2023/07/06 05:05:40;;;;;;;6.90;3.70;;;;;;;27.02;53.88;100898.59;5053696;28;20049;-62
2023/07/06 05:08:21;;;;;;;4.60;3.35;;;;;;;27.02;53.51;100907.59;5053498;28;20060;-62
2023/07/06 05:10:51;;;;;;;5.20;4.00;;;;;;;27.02;54.11;100910.31;5053877;28;20045;-62
2023/07/06 05:13:21;;;;;;;4.45;3.50;;;;;;;27.02;54.07;100913.03;5053783;28;20041;-62
2023/07/06 05:15:49;;;;;;;5.38;3.75;;;;;;;27.02;54.35;100921.19;5053213;28;20056;-62
2023/07/06 05:18:19;;;;;;;6.93;3.85;;;;;;;27.03;54.40;100919.31;5053413;28;20048;-58
2023/07/06 05:20:49;;;;;;;4.82;3.70;;;;;;;27.03;54.54;100928.31;5053999;28;20048;-57
2023/07/06 05:23:19;;;;;;;7.32;4.13;;;;;;;27.03;54.93;100927.47;5053073;28;20048;-57
2023/07/06 05:25:52;;;;;;;6.90;3.92;;;;;;;27.02;54.98;100929.34;5053775;28;20049;-62
2023/07/06 05:28:20;;;;;;;5.07;3.35;;;;;;;27.03;54.71;100930.19;5053245;28;20049;-62
2023/07/06 05:30:49;;;;;;;6.85;3.95;;;;;;;27.01;54.90;100922.19;5053239;28;20052;-62
2023/07/06 05:33:17;;;;;;;5.30;3.58;;;;;;;27.02;54.88;100920.31;5052928;28;20037;-62
2023/07/06 05:35:47;;;;;;;6.88;4.55;;;;;;;27.02;54.93;100926.63;5053003;28;20049;-59
2023/07/06 05:38:19;;;;;;;5.40;3.55;;;;;;;27.02;54.88;100926.63;5053539;28;20060;-63
2023/07/06 05:40:46;;;;;;;5.78;4.07;;;;;;;27.03;54.86;100928.31;5053160;28;20049;-63
2023/07/06 05:43:15;;;;;;;6.20;3.80;;;;;;;27.03;54.97;100930.19;5052907;28;20057;-62
2023/07/06 05:45:45;;;;;;;5.22;3.75;;;;;;;27.02;55.17;100926.63;5052871;28;20041;-62
2023/07/06 05:48:13;;;;;;;6.78;3.88;;;;;;;27.02;55.06;100929.34;5052218;28;20048;-58
2023/07/06 05:50:41;;;;;;;5.50;3.53;;;;;;;27.04;55.24;100940.03;5052839;28;20049;-58
2023/07/06 05:53:08;;;;;;;5.47;3.65;;;;;;;27.04;55.31;100940.88;5053076;28;20040;-58
2023/07/06 05:55:35;;;;;;;7.65;4.30;;;;;;;27.04;55.32;100940.88;5053519;28;20123;-57
2023/07/06 05:58:02;;;;;;;5.60;3.47;;;;;;;27.05;55.24;100945.25;5052763;28;20045;-62
2023/07/06 06:00:35;;;;;;;5.95;3.55;;;;;;;27.04;55.28;100949.00;5053275;28;20049;-63
2023/07/06 06:03:03;;;;;;;5.05;3.92;;;;;;;27.05;55.62;100947.97;5053503;28;20060;-62
2023/07/06 06:05:31;;;;;;;5.30;3.47;;;;;;;27.06;55.31;100944.25;5052655;28;20041;-63
2023/07/06 06:07:59;;;;;;;6.93;3.40;;;;;;;27.06;55.45;100944.25;5053242;28;20048;-58
2023/07/06 06:10:26;;;;;;;5.55;3.47;;;;;;;27.06;55.62;100944.25;5052894;28;20053;-58
2023/07/06 06:12:54;;;;;;;5.20;3.53;;;;;;;27.06;55.31;100948.81;5053511;28;20056;-58
2023/07/06 06:15:21;;;;;;;6.35;3.15;;;;;;;27.05;55.34;100945.25;5052838;28;20398;-58
2023/07/06 06:17:50;;;;;;;6.78;3.47;;;;;;;27.06;55.57;100948.81;5057112;28;20490;-58
2023/07/06 06:20:19;;;;;;;4.88;3.13;;;;;;;27.06;55.66;100946.97;5056224;28;20480;-58
2023/07/06 06:22:46;;;;;;;5.70;3.78;;;;;;;27.05;55.55;100949.84;5056172;28;20056;-58
2023/07/06 06:25:13;;;;;;;4.28;2.97;;;;;;;27.04;55.56;100946.28;5056234;28;20056;-58
2023/07/06 06:27:43;;;;;;;6.63;3.38;;;;;;;27.04;56.01;100949.00;5056331;28;20055;-58
2023/07/06 06:30:12;;;;;;;5.30;3.35;;;;;;;27.04;55.91;100956.31;5056205;28;20048;-58
2023/07/06 06:32:39;;;;;;;4.50;2.97;;;;;;;27.04;56.18;100951.72;5055981;28;20080;-58
2023/07/06 06:35:23;;;;;;;4.95;3.13;;;;;;;27.04;56.10;100951.72;5055882;28;20041;-58
2023/07/06 06:37:51;;;;;;;4.47;2.95;;;;;;;27.04;56.24;100946.28;5056769;28;20056;-63
2023/07/06 06:40:19;;;;;;;4.65;3.20;;;;;;;27.04;56.33;100949.00;5055836;28;20515;-63
2023/07/06 06:42:48;;;;;;;4.88;3.00;;;;;;;27.05;56.14;100947.97;5056434;28;20049;-63
2023/07/06 06:45:19;;;;;;;5.88;3.28;;;;;;;27.06;56.44;100949.69;5056331;28;20046;-63
2023/07/06 06:47:47;;;;;;;5.70;3.50;;;;;;;27.06;56.46;100959.69;5056651;28;20056;-58
2023/07/06 06:50:16;;;;;;;6.13;3.55;;;;;;;27.04;56.81;100956.31;5055890;28;20051;-59
2023/07/06 06:52:44;;;;;;;5.32;3.22;;;;;;;27.01;57.04;100954.81;5056240;28;20052;-59
2023/07/06 06:55:11;;;;;;;4.78;3.28;;;;;;;26.99;57.12;100954.16;5055800;28;20049;-59
2023/07/06 06:57:38;;;;;;;7.45;2.80;;;;;;;26.89;57.59;100956.22;5054448;28;20056;-59
2023/07/06 07:00:10;;;;;;;5.28;3.20;;;;;;;26.84;58.06;100950.50;5056207;28;20045;-60
2023/07/06 07:02:40;;;;;;;4.38;2.75;;;;;;;26.80;58.28;100951.88;5055146;28;20053;-60
2023/07/06 07:05:09;;;;;;;4.88;3.03;;;;;;;26.79;58.80;100948.31;5045819;28;20046;-59
2023/07/06 07:07:40;;;;;;;4.93;2.90;;;;;;;26.79;58.94;100955.63;5034765;28;20112;-62
2023/07/06 07:10:11;;;;;;;3.58;2.30;;;;;;;26.75;59.09;100963.28;5035411;28;20072;-62
2023/07/06 07:12:40;;;;;;;4.38;2.22;;;;;;;26.74;59.13;100967.03;5034061;28;20045;-62
2023/07/06 07:15:09;;;;;;;4.07;2.65;;;;;;;26.73;59.52;100970.75;5034649;28;20049;-62
2023/07/06 07:17:37;;;;;;;3.80;2.03;;;;;;;26.74;59.47;100968.88;5034290;28;20044;-62
2023/07/06 07:20:06;;;;;;;5.68;3.00;;;;;;;26.73;59.78;100970.75;5034868;28;20049;-62
2023/07/06 07:22:35;;;;;;;5.07;2.60;;;;;;;26.73;59.76;100969.91;5034876;28;20486;-62
2023/07/06 07:25:02;;;;;;;5.25;2.60;;;;;;;26.74;59.93;100968.88;5034856;28;20037;-62
2023/07/06 07:27:30;;;;;;;4.40;2.22;;;;;;;26.75;60.21;100973.31;5034668;28;20041;-63
2023/07/06 07:29:58;;;;;;;3.97;2.63;;;;;;;26.74;59.97;100969.75;5034573;28;20419;-63
2023/07/06 07:32:29;;;;;;;5.57;2.10;;;;;;;26.75;60.11;100963.28;5034815;28;20041;-63
2023/07/06 07:34:58;;;;;;;6.10;2.25;;;;;;;26.75;60.39;100962.44;5034809;28;20049;-63
2023/07/06 07:37:26;;;;;;;3.33;2.33;;;;;;;26.75;60.31;100967.88;5034555;28;20050;-62
2023/07/06 07:39:55;;;;;;;6.95;2.65;;;;;;;26.74;60.23;100964.31;5033946;28;20049;-62
2023/07/06 07:42:25;;;;;;;3.47;2.20;;;;;;;26.73;60.24;100972.63;5034520;28;20048;-62
2023/07/06 07:44:53;;;;;;;5.05;2.25;;;;;;;26.70;60.14;100976.56;5034948;28;20045;-62
2023/07/06 07:47:20;;;;;;;4.22;2.20;;;;;;;26.69;60.24;100979.44;5030216;28;20057;-62
2023/07/06 07:49:49;;;;;;;3.10;1.85;;;;;;;26.68;60.25;100984.03;5014543;28;20042;-62
2023/07/06 07:52:19;;;;;;;3.88;2.15;;;;;;;26.66;60.09;100986.09;5014542;28;20060;-62
2023/07/06 07:54:48;;;;;;;3.97;2.20;;;;;;;26.64;60.18;100985.41;5013491;28;20054;-62
2023/07/06 07:57:15;;;;;;;3.53;2.30;;;;;;;26.63;60.08;100984.56;5014335;28;20057;-58
2023/07/06 07:59:43;;;;;;;3.47;2.10;;;;;;;26.62;60.19;100982.88;5014313;28;20046;-58
2023/07/06 08:02:10;;;;;;;3.53;1.85;;;;;;;26.63;60.06;100981.84;5014592;28;20393;-59
2023/07/06 08:04:37;;;;;;;4.50;2.40;;;;;;;26.66;60.13;100994.22;5014340;28;20050;-59
2023/07/06 08:07:06;;;;;;;3.72;2.25;;;;;;;26.65;60.05;100989.78;5014465;28;20049;-59
2023/07/06 08:09:34;;;;;;;4.22;1.80;;;;;;;26.67;59.87;100997.78;5014027;28;20058;-59
2023/07/06 08:12:03;;;;;;;3.63;1.92;;;;;;;26.69;59.70;100998.44;5014513;28;20049;-59
2023/07/06 08:14:41;;;;;;;4.35;2.22;;;;;;;26.71;59.90;100993.69;5014414;28;20049;-59
2023/07/06 08:17:10;;;;;;;3.95;2.13;;;;;;;26.72;59.79;101001.66;5014131;28;20381;-59
2023/07/06 08:19:38;;;;;;;5.10;2.30;;;;;;;26.73;59.83;101002.50;5022553;28;20060;-59
2023/07/06 08:22:25;;;;;;;6.57;2.72;;;;;;;26.73;59.73;101011.50;5033840;28;20361;-59
2023/07/06 08:24:53;;;;;;;3.20;2.13;;;;;;;26.76;59.86;101013.00;5033729;28;20052;-59
2023/07/06 08:27:20;;;;;;;3.33;2.08;;;;;;;26.72;59.91;101009.81;5033607;28;20049;-59
2023/07/06 08:29:49;;;;;;;4.53;2.65;;;;;;;26.67;59.93;101016.81;5033674;28;20420;-59
2023/07/06 08:32:19;;;;;;;5.22;1.92;;;;;;;26.66;59.77;101017.78;5033510;28;20419;-59
2023/07/06 08:34:47;;;;;;;3.75;2.08;;;;;;;26.66;59.65;101029.53;5033615;28;20049;-59
2023/07/06 08:37:18;;;;;;;3.53;2.30;;;;;;;26.68;59.93;101016.63;5033603;28;20041;-58
2023/07/06 08:39:47;;;;;;;4.63;2.38;;;;;;;26.68;59.81;101018.47;5033515;28;20411;-57
2023/07/06 08:42:18;;;;;;;4.30;1.90;;;;;;;26.67;60.08;101011.38;5033483;28;20048;-57
2023/07/06 08:44:56;;;;;;;3.65;1.75;;;;;;;26.62;60.07;101020.03;5033476;28;20057;-54
2023/07/06 08:47:25;;;;;;;4.57;2.20;;;;;;;26.59;59.99;101018.50;5033499;28;20049;-58
2023/07/06 08:49:54;;;;;;;3.78;1.98;;;;;;;26.57;60.18;101015.13;5033694;28;20048;-58
2023/07/06 08:52:23;;;;;;;3.08;2.08;;;;;;;26.56;60.19;101015.31;5033312;28;20041;-59
2023/07/06 08:54:52;;;;;;;4.18;2.35;;;;;;;26.52;60.24;101024.81;5033149;28;20050;-60
2023/07/06 08:57:23;;;;;;;2.75;1.70;;;;;;;26.50;60.08;101032.31;5033245;28;20045;-53
2023/07/06 08:59:51;;;;;;;3.75;2.10;;;;;;;26.49;60.17;101034.16;5033438;28;20061;-52
2023/07/06 09:02:22;;;;;;;4.07;2.40;;;;;;;26.48;60.34;101042.47;5033172;28;20045;-52
2023/07/06 09:04:52;;;;;;;4.95;1.83;;;;;;;26.48;59.24;101042.47;5033160;28;20053;-55
2023/07/06 09:07:24;;;;;;;3.70;1.88;;;;;;;26.46;58.25;101048.09;5033092;28;20052;-52
2023/07/06 09:09:54;;;;;;;2.65;1.50;;;;;;;26.45;57.46;101059.09;5033017;28;20049;-55
2023/07/06 09:12:33;;;;;;;3.72;1.58;;;;;;;26.45;56.60;101059.09;5033157;28;20045;-59
2023/07/06 09:15:02;;;;;;;2.50;1.70;;;;;;;26.41;56.36;101074.00;5033069;28;20045;-54
2023/07/06 09:17:30;;;;;;;3.45;1.30;;;;;;;26.38;55.86;101069.81;5032920;28;20049;-55
2023/07/06 09:19:57;;;;;;;4.25;1.65;;;;;;;26.37;55.46;101066.25;5033406;28;20072;-54
2023/07/06 09:22:27;;;;;;;6.80;2.40;;;;;;;26.37;55.12;101063.53;5033069;28;20510;-52
2023/07/06 09:25:00;;;;;;;5.63;1.50;;;;;;;26.40;55.15;101067.75;5032989;28;20049;-59
2023/07/06 09:27:28;;;;;;;4.68;1.67;;;;;;;26.38;55.15;101070.63;5032914;28;20057;-60
2023/07/06 09:30:05;;;;;;;2.95;1.48;;;;;;;26.37;55.05;101085.25;5032821;28;20052;-60
2023/07/06 09:32:33;;;;;;;3.45;1.35;;;;;;;26.38;54.68;101088.81;5032867;28;20045;-59
2023/07/06 09:35:13;;;;;;;3.00;1.67;;;;;;;26.38;54.20;101091.50;5032678;28;20042;-58
2023/07/06 09:37:45;;;;;;;2.88;1.67;;;;;;;26.35;54.05;101092.69;5031626;28;20053;-58
2023/07/06 09:40:17;;;;;;;2.65;1.50;;;;;;;26.33;53.78;101088.44;5041480;28;20414;-59
2023/07/06 09:42:48;;;;;;;4.10;1.50;;;;;;;26.30;53.89;101086.09;5052540;28;20049;-58
2023/07/06 09:45:35;;;;;;;3.38;1.42;;;;;;;26.27;53.79;101090.00;5052358;28;20045;-59
2023/07/06 09:48:21;;;;;;;3.00;1.35;;;;;;;26.27;53.90;101089.16;5052891;28;20380;-58
2023/07/06 09:50:51;;;;;;;3.65;1.73;;;;;;;26.26;53.83;101085.59;5048278;28;20057;-58
2023/07/06 09:53:26;;;;;;;4.43;1.90;;;;;;;26.27;53.78;101097.28;5036499;28;20514;-59
2023/07/06 09:55:54;;;;;;;4.00;1.85;;;;;;;26.28;53.71;101093.56;5028451;28;20041;-55
2023/07/06 09:58:25;;;;;;;5.15;1.70;;;;;;;26.26;53.73;101091.03;5016673;28;20042;-52
2023/07/06 10:01:10;;;;;;;4.30;2.08;;;;;;;26.26;53.75;101092.88;5029785;28;20403;-53
2023/07/06 10:03:46;;;;;;;4.20;1.65;;;;;;;26.27;54.00;101089.16;5036419;28;20076;-53
2023/07/06 10:06:22;;;;;;;3.00;1.40;;;;;;;26.28;53.98;101086.25;5036413;28;20046;-55
2023/07/06 10:08:59;;;;;;;2.70;1.50;;;;;;;26.30;53.98;101086.09;5036017;28;20058;-52
2023/07/06 10:11:51;;;;;;;3.08;1.55;;;;;;;26.33;54.00;101088.44;5036226;28;20049;-52
2023/07/06 10:14:38;;;;;;;2.95;1.60;;;;;;;26.33;54.34;101080.31;5036233;28;20050;-53
2023/07/06 10:17:37;;;;;;;4.13;1.63;;;;;;;26.35;54.12;101094.56;5036298;28;20079;-59
2023/07/06 10:20:23;;;;;;;5.07;2.00;;;;;;;26.35;54.04;101092.69;5036373;28;20041;-59
2023/07/06 10:23:09;;;;;;;3.25;1.67;;;;;;;26.34;53.89;101101.03;5035876;28;20064;-59
2023/07/06 10:25:43;;;;;;;2.60;1.45;;;;;;;26.32;54.11;101101.16;5035941;28;20068;-59
2023/07/06 10:28:18;;;;;;;2.72;1.50;;;;;;;26.35;54.24;101117.13;5036067;28;20057;-53
2023/07/06 10:30:49;;;;;;;7.38;1.83;;;;;;;26.36;54.29;101117.97;5035820;28;20045;-52
2023/07/06 10:33:53;;;;;;;2.72;1.60;;;;;;;26.36;54.11;101120.69;5035742;28;20049;-55
2023/07/06 10:36:25;;;;;;;4.82;1.90;;;;;;;26.35;54.03;101119.00;5035024;28;20062;-54
2023/07/06 10:38:54;;;;;;;3.33;1.88;;;;;;;26.34;54.06;101118.16;5035677;28;20045;-55
2023/07/06 10:41:29;;;;;;;3.05;1.85;;;;;;;26.36;54.05;101131.53;5035636;28;20052;-52
2023/07/06 10:44:48;;;;;;;3.30;1.70;;;;;;;26.36;54.07;101132.38;5035702;28;20057;-52
2023/07/06 10:47:41;;;;;;;3.55;1.90;;;;;;;26.37;54.28;101128.69;5038122;28;20054;-59
2023/07/06 10:50:22;;;;;;;7.18;2.63;;;;;;;26.41;54.45;101139.16;5035486;28;20105;-59
2023/07/06 10:53:15;;;;;;;4.65;2.20;;;;;;;26.43;54.72;101132.56;5035322;28;20414;-59
2023/07/06 10:55:55;;;;;;;5.55;3.13;;;;;;;26.45;54.69;101135.13;5035370;28;20072;-59
2023/07/06 10:58:32;;;;;;;5.15;2.22;;;;;;;26.47;54.36;101133.94;5035325;28;20053;-55
2023/07/06 11:01:09;;;;;;;5.55;2.30;;;;;;;26.47;54.71;101135.81;5035323;28;20072;-53
2023/07/06 11:03:37;;;;;;;4.35;2.20;;;;;;;26.47;54.78;101133.94;5035087;28;20518;-55
2023/07/06 11:06:14;;;;;;;3.10;1.73;;;;;;;26.46;54.74;101143.13;5035205;28;20052;-52
2023/07/06 11:09:08;;;;;;;3.42;1.80;;;;;;;26.45;54.42;101152.25;5034834;28;20143;-55
2023/07/06 11:11:42;;;;;;;6.63;2.58;;;;;;;26.45;54.81;101159.56;5034951;28;20045;-55
2023/07/06 11:14:20;;;;;;;6.57;2.00;;;;;;;26.45;55.06;101160.41;5035032;28;20053;-54
2023/07/06 11:16:56;;;;;;;7.57;2.05;;;;;;;26.46;55.19;101170.25;5034899;28;20042;-52
2023/07/06 11:19:30;;;;;;;4.75;1.90;;;;;;;26.47;55.27;101173.81;5034865;28;20056;-53
2023/07/06 11:22:07;;;;;;;4.47;1.70;;;;;;;26.47;55.42;101171.94;5034943;28;20056;-54
2023/07/06 11:24:41;;;;;;;4.10;1.80;;;;;;;26.47;55.35;101182.81;5034871;28;20045;-52
2023/07/06 11:27:22;;;;;;;3.75;1.95;;;;;;;26.47;55.42;101179.25;5034895;28;20045;-52
2023/07/06 11:29:53;;;;;;;2.95;1.90;;;;;;;26.47;55.56;101179.25;5034864;28;20054;-52
2023/07/06 11:32:42;;;;;;;4.25;2.13;;;;;;;26.47;55.47;101173.81;5014922;28;20480;-55
2023/07/06 11:35:10;;;;;;;3.65;2.05;;;;;;;26.45;55.15;101175.84;5017022;28;20058;-54
2023/07/06 11:37:50;;;;;;;4.50;1.77;;;;;;;26.43;54.78;101178.72;5034391;28;20044;-59
2023/07/06 11:40:48;;;;;;;4.72;2.22;;;;;;;26.47;54.40;101181.97;5034455;28;20050;-58
2023/07/06 11:43:30;;;;;;;4.55;1.73;;;;;;;26.48;53.88;101192.66;5034502;28;20054;-59
2023/07/06 11:46:00;;;;;;;3.33;1.35;;;;;;;26.48;53.54;101195.38;5034589;28;20049;-58
2023/07/06 11:48:49;;;;;;;4.95;2.25;;;;;;;26.48;53.52;101200.78;5034481;28;20045;-58